WMKN/TGG METAR and TAF weather

Enter ICAO airport designator
Station Type Date Time Source
WMKN METAR 2019/12/06 02:00 UTC NOAA

WMKN 060200Z 04008KT 010V080 9999 SCT018 28/23 Q1014


Station Type Date Time Source
WMKN Decoded METAR 2019/12/06 02:00 UTC NOAA

Station name not available
Dec 05, 2019 - 09:00 PM EST / 2019.12.06 0200 UTC
Wind: from the NE (040 degrees) at 9 MPH (8 KT) (direction variable):0
Visibility: greater than 7 mile(s):0
Sky conditions: partly cloudy
Temperature: 82 F (28 C)
Dew Point: 73 F (23 C)
Relative Humidity: 74%
Pressure (altimeter): 29.94 in. Hg (1014 hPa)
ob: WMKN 060200Z 04008KT 010V080 9999 SCT018 28/23 Q1014
cycle: 2

Station Type Date Time Source
WMKN TAF 2019/12/05 18:00 UTC NOAA

TAF WMKN 051700Z 0518/0618 05008KT 9999 SCT022
TEMPO 0518/0520 06008G20KT
BECMG 0600/0602 SCT018

Example: see airport list